Camellia — VRCP9 — position and weather

sailwx.info

Track history (hours):
 
Tides and Currents Weather Stations Pressure Air Temp Water Temp Dewpoint Dewpoint Depression Visibility Wind Speed Wind Dir Waves Ship Positions

Camellia

Last reported at 2015-May-23 06:04 UTC. Time now 2015-May-24 03:13 UTC.
Position N 39°43' E 025°41'.

Length 222 m; draft 8.2 m.

Type: Ship (hazmat cat C). MMSI: 477791900.

Date/timePositionNaut miles runAvg speedWind from/ knotsBaromVisibWave heightAir tempDewpointWater temp
2015-May-23 06:04N 39°43' E 025°41'1019.4
2015-May-23 05:33N 39°52' E 025°47'  
2015-May-18 22:09N 43°29' E 028°55'3919.1
2015-May-18 20:07N 42°50' E 028°60'1119.3
2015-May-18 19:33N 42°39' E 029°02'1919.1
2015-May-18 18:33N 42°20' E 029°04'1919.0
2015-May-18 17:33N 42°01' E 029°07'4119.6
2015-May-18 15:28N 41°21' E 029°13'189 4.1
2015-May-16 17:24N 39°39' E 025°43'3919.8
2015-May-16 15:25N 39°04' E 025°20'1819.8
2015-May-16 14:29N 38°48' E 025°08'11719.5
2015-May-16 08:31N 37°01' E 024°09'2019.4
2015-May-16 07:27N 36°43' E 023°56'2219.8
2015-May-16 06:20N 36°26' E 023°39'1519.7
2015-May-16 05:33N 36°15' E 023°25'2019.5
2015-May-16 04:33N 36°02' E 023°07'4119.6
2015-May-16 02:27N 36°00' E 022°16'19419.5
2015-May-15 16:29N 35°54' E 018°17'1819.8
2015-May-15 15:33N 35°53' E 017°54'2019.5
2015-May-15 14:33N 35°53' E 017°30'2219.6
2015-May-15 13:25N 35°52' E 017°03'1719.6
2015-May-15 12:33N 35°51' E 016°42'2019.9
2015-May-15 11:33N 35°51' E 016°17'2020.0
2015-May-15 10:33N 35°50' E 015°53'2020.0
2015-May-15 09:33N 35°49' E 015°28'2019.8
2015-May-15 08:33N 35°48' E 015°04'1919.3
2015-May-15 07:34N 35°48' E 014°40'6 6.2
2015-May-15 06:33N 35°49' E 014°33'0 0.0
2015-May-15 05:33N 35°49' E 014°33'0 0.0
2015-May-15 04:31N 35°49' E 014°33'0 0.0
2015-May-15 03:31N 35°49' E 014°33'0 0.0
2015-May-15 02:31N 35°49' E 014°33'0 0.0
2015-May-15 01:28N 35°49' E 014°33'0 0.0
2015-May-15 00:28N 35°49' E 014°33'0 0.0
2015-May-14 23:31N 35°49' E 014°33'0 0.0
2015-May-14 22:31N 35°49' E 014°33'0 0.0
2015-May-14 21:31N 35°49' E 014°33'0 0.0
2015-May-14 20:31N 35°49' E 014°33'0 0.0
2015-May-14 19:31N 35°49' E 014°33'0 0.0
2015-May-14 18:31N 35°49' E 014°33'0 0.0
2015-May-14 17:33N 35°49' E 014°33'0 0.0
2015-May-14 16:33N 35°49' E 014°33'0 0.0
2015-May-14 15:33N 35°49' E 014°33'0 0.0
2015-May-14 14:33N 35°49' E 014°33'0 0.0
2015-May-14 13:33N 35°49' E 014°33'0 0.0
2015-May-14 12:33N 35°49' E 014°33'0 0.0
2015-May-14 11:33N 35°49' E 014°33'0 0.0
2015-May-14 10:33N 35°49' E 014°33'0 0.0
2015-May-14 09:33N 35°49' E 014°33'0 0.0
2015-May-14 08:33N 35°49' E 014°33'0 0.0
2015-May-14 07:33N 35°49' E 014°33'0 0.0
2015-May-14 06:33N 35°49' E 014°33'0 0.0
2015-May-14 05:33N 35°49' E 014°33'0 0.0
2015-May-14 04:33N 35°49' E 014°33'0 0.0
2015-May-14 03:33N 35°49' E 014°33'3 2.9
2015-May-14 02:33N 35°48' E 014°36'6 5.9
2015-May-14 01:33N 35°46' E 014°42'1 1.4
2015-May-14 00:32N 35°45' E 014°44'1 0.7
2015-May-13 23:33N 35°45' E 014°43'1 0.5
2015-May-13 22:33N 35°46' E 014°43'0 0.5
2015-May-13 21:33N 35°46' E 014°42'0 0.4
2015-May-13 20:33N 35°46' E 014°42'0 0.3
2015-May-13 19:33N 35°46' E 014°42'0 0.3
2015-May-13 18:33N 35°46' E 014°42'5 4.9
2015-May-13 17:33N 35°45' E 014°36'1010.0
2015-May-13 16:33N 35°45' E 014°23'1010.4
2015-May-13 15:33N 35°51' E 014°12'1010.5
2015-May-13 14:33N 35°57' E 014°02'1111.0
2015-May-13 13:33N 36°02' E 013°50'1110.9
2015-May-13 12:33N 36°08' E 013°39'1110.9
2015-May-13 11:33N 36°14' E 013°27'1110.8
2015-May-13 10:33N 36°20' E 013°16'1111.1
2015-May-13 09:33N 36°26' E 013°04'1111.2
2015-May-13 08:33N 36°32' E 012°53'1211.5
2015-May-13 07:33N 36°38' E 012°41'1611.3
2015-May-13 06:08N 36°47' E 012°24'  
Track history (hours):
 
Tides and Currents Weather Stations Pressure Air Temp Water Temp Dewpoint Dewpoint Depression Visibility Wind Speed Wind Dir Waves Ship Positions

Camellia

Last reported at 2015-May-23 06:04 UTC. Time now 2015-May-24 03:13 UTC.
Position N 39°43' E 025°41'.

Length 222 m; draft 8.2 m.

Type: Ship (hazmat cat C). MMSI: 477791900.

Date/timePositionNaut miles runAvg speedWind from/ knotsBaromVisibWave heightAir tempDewpointWater temp
2015-May-23 06:04N 39°43' E 025°41'1019.4
2015-May-23 05:33N 39°52' E 025°47'  
2015-May-18 22:09N 43°29' E 028°55'3919.1
2015-May-18 20:07N 42°50' E 028°60'1119.3
2015-May-18 19:33N 42°39' E 029°02'1919.1
2015-May-18 18:33N 42°20' E 029°04'1919.0
2015-May-18 17:33N 42°01' E 029°07'4119.6
2015-May-18 15:28N 41°21' E 029°13'189 4.1
2015-May-16 17:24N 39°39' E 025°43'3919.8
2015-May-16 15:25N 39°04' E 025°20'1819.8
2015-May-16 14:29N 38°48' E 025°08'11719.5
2015-May-16 08:31N 37°01' E 024°09'2019.4
2015-May-16 07:27N 36°43' E 023°56'2219.8
2015-May-16 06:20N 36°26' E 023°39'1519.7
2015-May-16 05:33N 36°15' E 023°25'2019.5
2015-May-16 04:33N 36°02' E 023°07'4119.6
2015-May-16 02:27N 36°00' E 022°16'19419.5
2015-May-15 16:29N 35°54' E 018°17'1819.8
2015-May-15 15:33N 35°53' E 017°54'2019.5
2015-May-15 14:33N 35°53' E 017°30'2219.6
2015-May-15 13:25N 35°52' E 017°03'1719.6
2015-May-15 12:33N 35°51' E 016°42'2019.9
2015-May-15 11:33N 35°51' E 016°17'2020.0
2015-May-15 10:33N 35°50' E 015°53'2020.0
2015-May-15 09:33N 35°49' E 015°28'2019.8
2015-May-15 08:33N 35°48' E 015°04'1919.3
2015-May-15 07:34N 35°48' E 014°40'6 6.2
2015-May-15 06:33N 35°49' E 014°33'0 0.0
2015-May-15 05:33N 35°49' E 014°33'0 0.0
2015-May-15 04:31N 35°49' E 014°33'0 0.0
2015-May-15 03:31N 35°49' E 014°33'0 0.0
2015-May-15 02:31N 35°49' E 014°33'0 0.0
2015-May-15 01:28N 35°49' E 014°33'0 0.0
2015-May-15 00:28N 35°49' E 014°33'0 0.0
2015-May-14 23:31N 35°49' E 014°33'0 0.0
2015-May-14 22:31N 35°49' E 014°33'0 0.0
2015-May-14 21:31N 35°49' E 014°33'0 0.0
2015-May-14 20:31N 35°49' E 014°33'0 0.0
2015-May-14 19:31N 35°49' E 014°33'0 0.0
2015-May-14 18:31N 35°49' E 014°33'0 0.0
2015-May-14 17:33N 35°49' E 014°33'0 0.0
2015-May-14 16:33N 35°49' E 014°33'0 0.0
2015-May-14 15:33N 35°49' E 014°33'0 0.0
2015-May-14 14:33N 35°49' E 014°33'0 0.0
2015-May-14 13:33N 35°49' E 014°33'0 0.0
2015-May-14 12:33N 35°49' E 014°33'0 0.0
2015-May-14 11:33N 35°49' E 014°33'0 0.0
2015-May-14 10:33N 35°49' E 014°33'0 0.0
2015-May-14 09:33N 35°49' E 014°33'0 0.0
2015-May-14 08:33N 35°49' E 014°33'0 0.0
2015-May-14 07:33N 35°49' E 014°33'0 0.0
2015-May-14 06:33N 35°49' E 014°33'0 0.0
2015-May-14 05:33N 35°49' E 014°33'0 0.0
2015-May-14 04:33N 35°49' E 014°33'0 0.0
2015-May-14 03:33N 35°49' E 014°33'3 2.9
2015-May-14 02:33N 35°48' E 014°36'6 5.9
2015-May-14 01:33N 35°46' E 014°42'1 1.4
2015-May-14 00:32N 35°45' E 014°44'1 0.7
2015-May-13 23:33N 35°45' E 014°43'1 0.5
2015-May-13 22:33N 35°46' E 014°43'0 0.5
2015-May-13 21:33N 35°46' E 014°42'0 0.4
2015-May-13 20:33N 35°46' E 014°42'0 0.3
2015-May-13 19:33N 35°46' E 014°42'0 0.3
2015-May-13 18:33N 35°46' E 014°42'5 4.9
2015-May-13 17:33N 35°45' E 014°36'1010.0
2015-May-13 16:33N 35°45' E 014°23'1010.4
2015-May-13 15:33N 35°51' E 014°12'1010.5
2015-May-13 14:33N 35°57' E 014°02'1111.0
2015-May-13 13:33N 36°02' E 013°50'1110.9
2015-May-13 12:33N 36°08' E 013°39'1110.9
2015-May-13 11:33N 36°14' E 013°27'1110.8
2015-May-13 10:33N 36°20' E 013°16'1111.1
2015-May-13 09:33N 36°26' E 013°04'1111.2
2015-May-13 08:33N 36°32' E 012°53'1211.5
2015-May-13 07:33N 36°38' E 012°41'1611.3
2015-May-13 06:08N 36°47' E 012°24'  

Dump ship's entire track history